sensor_id;sensor_type;location;lat;lon;timestamp;temperature;humidity
34985;DHT22;21190;58.750;17.004;2024-02-23T00:02:24;4.10;99.90
34985;DHT22;21190;58.750;17.004;2024-02-23T00:04:52;4.10;99.90
34985;DHT22;21190;58.750;17.004;2024-02-23T00:07:19;4.10;99.90
34985;DHT22;21190;58.750;17.004;2024-02-23T00:09:46;4.10;99.90
34985;DHT22;21190;58.750;17.004;2024-02-23T00:12:13;4.10;99.90
34985;DHT22;21190;58.750;17.004;2024-02-23T00:14:41;4.10;99.90
34985;DHT22;21190;58.750;17.004;2024-02-23T00:17:11;4.10;99.90
34985;DHT22;21190;58.750;17.004;2024-02-23T00:19:38;4.10;99.90
34985;DHT22;21190;58.750;17.004;2024-02-23T00:22:05;4.10;99.90
34985;DHT22;21190;58.750;17.004;2024-02-23T00:24:35;4.00;99.90
34985;DHT22;21190;58.750;17.004;2024-02-23T00:27:03;4.00;99.90
34985;DHT22;21190;58.750;17.004;2024-02-23T00:29:30;4.00;99.90
34985;DHT22;21190;58.750;17.004;2024-02-23T00:31:58;4.00;99.90
34985;DHT22;21190;58.750;17.004;2024-02-23T00:34:25;3.90;99.90
34985;DHT22;21190;58.750;17.004;2024-02-23T00:36:52;3.90;99.90
34985;DHT22;21190;58.750;17.004;2024-02-23T00:39:19;3.90;99.90
34985;DHT22;21190;58.750;17.004;2024-02-23T00:41:46;3.90;99.90
34985;DHT22;21190;58.750;17.004;2024-02-23T00:44:13;3.90;99.90
34985;DHT22;21190;58.750;17.004;2024-02-23T00:46:41;3.90;99.90
34985;DHT22;21190;58.750;17.004;2024-02-23T00:49:08;3.90;99.90
34985;DHT22;21190;58.750;17.004;2024-02-23T00:51:35;3.80;99.90
34985;DHT22;21190;58.750;17.004;2024-02-23T00:54:03;3.90;99.90
34985;DHT22;21190;58.750;17.004;2024-02-23T00:56:30;3.90;99.90
34985;DHT22;21190;58.750;17.004;2024-02-23T00:59:11;3.80;99.90
34985;DHT22;21190;58.750;17.004;2024-02-23T01:01:38;3.90;99.90
34985;DHT22;21190;58.750;17.004;2024-02-23T01:04:05;3.80;99.90
34985;DHT22;21190;58.750;17.004;2024-02-23T01:06:32;3.80;99.90
34985;DHT22;21190;58.750;17.004;2024-02-23T01:08:59;3.80;99.90
34985;DHT22;21190;58.750;17.004;2024-02-23T01:11:27;3.80;99.90
34985;DHT22;21190;58.750;17.004;2024-02-23T01:13:54;3.80;99.90
34985;DHT22;21190;58.750;17.004;2024-02-23T01:16:21;3.80;99.90
34985;DHT22;21190;58.750;17.004;2024-02-23T01:18:48;3.70;99.90
34985;DHT22;21190;58.750;17.004;2024-02-23T01:21:15;3.70;99.90
34985;DHT22;21190;58.750;17.004;2024-02-23T01:23:42;3.70;99.90
34985;DHT22;21190;58.750;17.004;2024-02-23T01:26:09;3.60;99.90
34985;DHT22;21190;58.750;17.004;2024-02-23T01:28:36;3.60;99.90
34985;DHT22;21190;58.750;17.004;2024-02-23T01:31:03;3.60;99.90
34985;DHT22;21190;58.750;17.004;2024-02-23T01:33:31;3.60;99.90
34985;DHT22;21190;58.750;17.004;2024-02-23T01:35:58;3.50;99.90
34985;DHT22;21190;58.750;17.004;2024-02-23T01:38:25;3.50;99.90
34985;DHT22;21190;58.750;17.004;2024-02-23T01:41:01;3.50;99.90
34985;DHT22;21190;58.750;17.004;2024-02-23T01:43:28;3.50;99.90
34985;DHT22;21190;58.750;17.004;2024-02-23T01:45:55;3.50;99.90
34985;DHT22;21190;58.750;17.004;2024-02-23T01:48:26;3.60;99.90
34985;DHT22;21190;58.750;17.004;2024-02-23T01:50:54;3.60;99.90
34985;DHT22;21190;58.750;17.004;2024-02-23T01:53:21;3.60;99.90
34985;DHT22;21190;58.750;17.004;2024-02-23T01:55:50;3.60;99.90
34985;DHT22;21190;58.750;17.004;2024-02-23T01:58:17;3.60;99.90
34985;DHT22;21190;58.750;17.004;2024-02-23T02:00:45;3.60;99.90
34985;DHT22;21190;58.750;17.004;2024-02-23T02:03:12;3.70;99.90
34985;DHT22;21190;58.750;17.004;2024-02-23T02:05:39;3.70;99.90
34985;DHT22;21190;58.750;17.004;2024-02-23T02:08:07;3.70;99.90
34985;DHT22;21190;58.750;17.004;2024-02-23T02:10:34;3.70;99.90
34985;DHT22;21190;58.750;17.004;2024-02-23T02:13:02;3.80;99.90
34985;DHT22;21190;58.750;17.004;2024-02-23T02:15:30;3.80;99.90
34985;DHT22;21190;58.750;17.004;2024-02-23T02:17:57;3.80;99.90
34985;DHT22;21190;58.750;17.004;2024-02-23T02:20:25;3.80;99.90
34985;DHT22;21190;58.750;17.004;2024-02-23T02:22:55;3.80;99.90
34985;DHT22;21190;58.750;17.004;2024-02-23T02:25:22;3.80;99.90
34985;DHT22;21190;58.750;17.004;2024-02-23T02:27:50;3.80;99.90
34985;DHT22;21190;58.750;17.004;2024-02-23T02:30:17;3.80;99.90
34985;DHT22;21190;58.750;17.004;2024-02-23T02:32:44;3.70;99.90
34985;DHT22;21190;58.750;17.004;2024-02-23T02:35:11;3.70;99.90
34985;DHT22;21190;58.750;17.004;2024-02-23T02:37:39;3.60;99.90
34985;DHT22;21190;58.750;17.004;2024-02-23T02:40:07;3.60;99.90
34985;DHT22;21190;58.750;17.004;2024-02-23T02:42:34;3.60;99.90
34985;DHT22;21190;58.750;17.004;2024-02-23T02:45:01;3.50;99.90
34985;DHT22;21190;58.750;17.004;2024-02-23T02:47:30;3.50;99.90
34985;DHT22;21190;58.750;17.004;2024-02-23T02:49:57;3.50;99.90
34985;DHT22;21190;58.750;17.004;2024-02-23T02:52:24;3.50;99.90
34985;DHT22;21190;58.750;17.004;2024-02-23T02:54:51;3.50;99.90
34985;DHT22;21190;58.750;17.004;2024-02-23T02:57:18;3.60;99.90
34985;DHT22;21190;58.750;17.004;2024-02-23T02:59:46;3.60;99.90
34985;DHT22;21190;58.750;17.004;2024-02-23T03:02:13;3.70;99.90
34985;DHT22;21190;58.750;17.004;2024-02-23T03:04:47;3.60;99.90
34985;DHT22;21190;58.750;17.004;2024-02-23T03:07:18;3.70;99.90
34985;DHT22;21190;58.750;17.004;2024-02-23T03:09:48;3.70;99.90
34985;DHT22;21190;58.750;17.004;2024-02-23T03:12:17;3.70;99.90
34985;DHT22;21190;58.750;17.004;2024-02-23T03:14:44;3.70;99.90
34985;DHT22;21190;58.750;17.004;2024-02-23T03:17:15;3.70;99.90
34985;DHT22;21190;58.750;17.004;2024-02-23T03:19:42;3.60;99.90
34985;DHT22;21190;58.750;17.004;2024-02-23T03:22:09;3.60;99.90
34985;DHT22;21190;58.750;17.004;2024-02-23T03:24:36;3.70;99.90
34985;DHT22;21190;58.750;17.004;2024-02-23T03:27:04;3.70;99.90
34985;DHT22;21190;58.750;17.004;2024-02-23T03:29:31;3.70;99.90
34985;DHT22;21190;58.750;17.004;2024-02-23T03:31:59;3.70;99.90
34985;DHT22;21190;58.750;17.004;2024-02-23T03:34:28;3.70;99.90
34985;DHT22;21190;58.750;17.004;2024-02-23T03:36:55;3.70;99.90
34985;DHT22;21190;58.750;17.004;2024-02-23T03:39:22;3.70;99.90
34985;DHT22;21190;58.750;17.004;2024-02-23T03:41:49;3.70;99.90
34985;DHT22;21190;58.750;17.004;2024-02-23T03:44:16;3.70;99.90
34985;DHT22;21190;58.750;17.004;2024-02-23T03:46:43;3.60;99.90
34985;DHT22;21190;58.750;17.004;2024-02-23T03:49:11;3.70;99.90
34985;DHT22;21190;58.750;17.004;2024-02-23T03:51:38;3.60;99.90
34985;DHT22;21190;58.750;17.004;2024-02-23T03:54:06;3.60;99.90
34985;DHT22;21190;58.750;17.004;2024-02-23T03:56:40;3.50;99.90
34985;DHT22;21190;58.750;17.004;2024-02-23T03:59:08;3.50;99.90
34985;DHT22;21190;58.750;17.004;2024-02-23T04:01:39;3.40;99.90
34985;DHT22;21190;58.750;17.004;2024-02-23T04:04:06;3.50;99.90
34985;DHT22;21190;58.750;17.004;2024-02-23T04:06:34;3.50;99.90
34985;DHT22;21190;58.750;17.004;2024-02-23T04:09:02;3.50;99.90
34985;DHT22;21190;58.750;17.004;2024-02-23T04:11:32;3.50;99.90
34985;DHT22;21190;58.750;17.004;2024-02-23T04:14:00;3.50;99.90
34985;DHT22;21190;58.750;17.004;2024-02-23T04:16:27;3.50;99.90
34985;DHT22;21190;58.750;17.004;2024-02-23T04:18:55;3.60;99.90
34985;DHT22;21190;58.750;17.004;2024-02-23T04:21:24;3.60;99.90
34985;DHT22;21190;58.750;17.004;2024-02-23T04:23:51;3.60;99.90
34985;DHT22;21190;58.750;17.004;2024-02-23T04:26:18;3.60;99.90
34985;DHT22;21190;58.750;17.004;2024-02-23T04:28:46;3.60;99.90
34985;DHT22;21190;58.750;17.004;2024-02-23T04:31:13;3.60;99.90
34985;DHT22;21190;58.750;17.004;2024-02-23T04:33:40;3.60;99.90
34985;DHT22;21190;58.750;17.004;2024-02-23T04:36:08;3.70;99.90
34985;DHT22;21190;58.750;17.004;2024-02-23T04:38:35;3.60;99.90
34985;DHT22;21190;58.750;17.004;2024-02-23T04:41:03;3.60;99.90
34985;DHT22;21190;58.750;17.004;2024-02-23T04:43:32;3.70;99.90
34985;DHT22;21190;58.750;17.004;2024-02-23T04:45:59;3.60;99.90
34985;DHT22;21190;58.750;17.004;2024-02-23T04:48:26;3.60;99.90
34985;DHT22;21190;58.750;17.004;2024-02-23T04:50:53;3.60;99.90
34985;DHT22;21190;58.750;17.004;2024-02-23T04:53:20;3.60;99.90
34985;DHT22;21190;58.750;17.004;2024-02-23T04:55:47;3.70;99.90
34985;DHT22;21190;58.750;17.004;2024-02-23T04:58:15;3.70;99.90
34985;DHT22;21190;58.750;17.004;2024-02-23T05:00:42;3.80;99.90
34985;DHT22;21190;58.750;17.004;2024-02-23T05:03:09;3.80;99.90
34985;DHT22;21190;58.750;17.004;2024-02-23T05:05:38;3.90;99.90
34985;DHT22;21190;58.750;17.004;2024-02-23T05:08:06;3.90;99.90
34985;DHT22;21190;58.750;17.004;2024-02-23T05:10:34;3.90;99.90
34985;DHT22;21190;58.750;17.004;2024-02-23T05:13:01;4.00;99.90
34985;DHT22;21190;58.750;17.004;2024-02-23T05:15:28;4.10;99.90
34985;DHT22;21190;58.750;17.004;2024-02-23T05:17:55;4.20;99.90
34985;DHT22;21190;58.750;17.004;2024-02-23T05:20:22;4.20;99.90
34985;DHT22;21190;58.750;17.004;2024-02-23T05:22:49;4.20;99.90
34985;DHT22;21190;58.750;17.004;2024-02-23T05:25:17;4.30;99.90
34985;DHT22;21190;58.750;17.004;2024-02-23T05:27:44;4.40;99.90
34985;DHT22;21190;58.750;17.004;2024-02-23T05:30:13;4.40;99.90
34985;DHT22;21190;58.750;17.004;2024-02-23T05:32:41;4.40;99.90
34985;DHT22;21190;58.750;17.004;2024-02-23T05:35:08;4.40;99.90
34985;DHT22;21190;58.750;17.004;2024-02-23T05:37:36;4.40;99.90
34985;DHT22;21190;58.750;17.004;2024-02-23T05:40:04;4.40;99.90
34985;DHT22;21190;58.750;17.004;2024-02-23T05:42:37;4.50;99.90
34985;DHT22;21190;58.750;17.004;2024-02-23T05:45:07;4.50;99.90
34985;DHT22;21190;58.750;17.004;2024-02-23T05:47:37;4.50;99.90
34985;DHT22;21190;58.750;17.004;2024-02-23T05:50:05;4.50;99.90
34985;DHT22;21190;58.750;17.004;2024-02-23T05:52:33;4.60;99.90
34985;DHT22;21190;58.750;17.004;2024-02-23T05:55:00;4.50;99.90
34985;DHT22;21190;58.750;17.004;2024-02-23T05:57:28;4.50;99.90
34985;DHT22;21190;58.750;17.004;2024-02-23T05:59:55;4.50;99.90
34985;DHT22;21190;58.750;17.004;2024-02-23T06:02:22;4.50;99.90
34985;DHT22;21190;58.750;17.004;2024-02-23T06:04:50;4.50;99.90
34985;DHT22;21190;58.750;17.004;2024-02-23T06:07:17;4.60;99.90
34985;DHT22;21190;58.750;17.004;2024-02-23T06:09:44;4.60;99.90
34985;DHT22;21190;58.750;17.004;2024-02-23T06:12:14;4.60;99.90
34985;DHT22;21190;58.750;17.004;2024-02-23T06:14:43;4.50;99.90
34985;DHT22;21190;58.750;17.004;2024-02-23T06:17:13;4.50;99.90
34985;DHT22;21190;58.750;17.004;2024-02-23T06:19:40;4.60;99.90
34985;DHT22;21190;58.750;17.004;2024-02-23T06:22:08;4.60;99.90
34985;DHT22;21190;58.750;17.004;2024-02-23T06:24:37;4.60;99.90
34985;DHT22;21190;58.750;17.004;2024-02-23T06:27:04;4.60;99.90
34985;DHT22;21190;58.750;17.004;2024-02-23T06:29:31;4.60;99.90
34985;DHT22;21190;58.750;17.004;2024-02-23T06:31:59;4.50;99.90
34985;DHT22;21190;58.750;17.004;2024-02-23T06:34:28;4.50;99.90
34985;DHT22;21190;58.750;17.004;2024-02-23T06:36:56;4.50;99.90
34985;DHT22;21190;58.750;17.004;2024-02-23T06:39:23;4.60;99.90
34985;DHT22;21190;58.750;17.004;2024-02-23T06:41:50;4.60;99.90
34985;DHT22;21190;58.750;17.004;2024-02-23T06:44:17;4.60;99.90
34985;DHT22;21190;58.750;17.004;2024-02-23T06:46:45;4.60;99.90
34985;DHT22;21190;58.750;17.004;2024-02-23T06:49:13;4.60;99.90
34985;DHT22;21190;58.750;17.004;2024-02-23T06:51:40;4.60;99.90
34985;DHT22;21190;58.750;17.004;2024-02-23T06:54:09;4.70;99.90
34985;DHT22;21190;58.750;17.004;2024-02-23T06:56:36;4.70;99.90
34985;DHT22;21190;58.750;17.004;2024-02-23T06:59:03;4.70;99.90
34985;DHT22;21190;58.750;17.004;2024-02-23T07:01:30;4.60;99.90
34985;DHT22;21190;58.750;17.004;2024-02-23T07:03:58;4.70;99.90
34985;DHT22;21190;58.750;17.004;2024-02-23T07:06:25;4.70;99.90
34985;DHT22;21190;58.750;17.004;2024-02-23T07:08:55;4.70;99.90
34985;DHT22;21190;58.750;17.004;2024-02-23T07:11:22;4.60;99.90
34985;DHT22;21190;58.750;17.004;2024-02-23T07:13:49;4.60;99.90
34985;DHT22;21190;58.750;17.004;2024-02-23T07:16:18;4.60;99.90
34985;DHT22;21190;58.750;17.004;2024-02-23T07:18:45;4.70;99.90
34985;DHT22;21190;58.750;17.004;2024-02-23T07:21:12;4.70;99.90
34985;DHT22;21190;58.750;17.004;2024-02-23T07:23:39;4.60;99.90
34985;DHT22;21190;58.750;17.004;2024-02-23T07:26:07;4.70;99.90
34985;DHT22;21190;58.750;17.004;2024-02-23T07:28:34;4.60;99.90
34985;DHT22;21190;58.750;17.004;2024-02-23T07:31:01;4.60;99.90
34985;DHT22;21190;58.750;17.004;2024-02-23T07:33:28;4.60;99.90
34985;DHT22;21190;58.750;17.004;2024-02-23T07:35:55;4.60;99.90
34985;DHT22;21190;58.750;17.004;2024-02-23T07:38:23;4.60;99.90
34985;DHT22;21190;58.750;17.004;2024-02-23T07:40:50;4.50;99.90
34985;DHT22;21190;58.750;17.004;2024-02-23T07:43:17;4.50;99.90
34985;DHT22;21190;58.750;17.004;2024-02-23T07:45:44;4.50;99.90
34985;DHT22;21190;58.750;17.004;2024-02-23T07:48:11;4.50;99.90
34985;DHT22;21190;58.750;17.004;2024-02-23T07:50:38;4.40;99.90
34985;DHT22;21190;58.750;17.004;2024-02-23T07:53:06;4.50;99.90
34985;DHT22;21190;58.750;17.004;2024-02-23T07:55:33;4.40;99.90
34985;DHT22;21190;58.750;17.004;2024-02-23T07:58:00;4.50;99.90
34985;DHT22;21190;58.750;17.004;2024-02-23T08:00:28;4.50;99.90
34985;DHT22;21190;58.750;17.004;2024-02-23T08:02:56;4.50;99.90
34985;DHT22;21190;58.750;17.004;2024-02-23T08:05:27;4.60;99.90
34985;DHT22;21190;58.750;17.004;2024-02-23T08:07:54;4.60;99.90
34985;DHT22;21190;58.750;17.004;2024-02-23T08:10:21;4.60;99.90
34985;DHT22;21190;58.750;17.004;2024-02-23T08:12:48;4.60;99.90
34985;DHT22;21190;58.750;17.004;2024-02-23T08:15:15;4.60;99.90
34985;DHT22;21190;58.750;17.004;2024-02-23T08:17:42;4.60;99.90
34985;DHT22;21190;58.750;17.004;2024-02-23T08:20:10;4.50;99.90
34985;DHT22;21190;58.750;17.004;2024-02-23T08:22:37;4.60;99.90
34985;DHT22;21190;58.750;17.004;2024-02-23T08:25:05;4.60;99.90
34985;DHT22;21190;58.750;17.004;2024-02-23T08:27:32;4.60;99.90
34985;DHT22;21190;58.750;17.004;2024-02-23T08:29:59;4.60;99.90
34985;DHT22;21190;58.750;17.004;2024-02-23T08:32:26;4.60;99.90
34985;DHT22;21190;58.750;17.004;2024-02-23T08:34:53;4.70;99.90
34985;DHT22;21190;58.750;17.004;2024-02-23T08:37:26;4.60;99.90
34985;DHT22;21190;58.750;17.004;2024-02-23T08:39:54;4.70;99.90
34985;DHT22;21190;58.750;17.004;2024-02-23T08:42:21;4.70;99.90
34985;DHT22;21190;58.750;17.004;2024-02-23T08:44:48;4.70;99.90
34985;DHT22;21190;58.750;17.004;2024-02-23T08:47:15;4.70;99.90
34985;DHT22;21190;58.750;17.004;2024-02-23T08:49:42;4.80;99.90
34985;DHT22;21190;58.750;17.004;2024-02-23T08:52:10;4.80;99.90
34985;DHT22;21190;58.750;17.004;2024-02-23T08:54:40;4.90;99.90
34985;DHT22;21190;58.750;17.004;2024-02-23T08:57:07;4.90;99.90
34985;DHT22;21190;58.750;17.004;2024-02-23T08:59:34;4.90;99.90
34985;DHT22;21190;58.750;17.004;2024-02-23T09:02:01;4.90;99.90
34985;DHT22;21190;58.750;17.004;2024-02-23T09:04:29;5.00;99.90
34985;DHT22;21190;58.750;17.004;2024-02-23T09:06:56;5.00;99.90
34985;DHT22;21190;58.750;17.004;2024-02-23T09:09:23;5.00;99.90
34985;DHT22;21190;58.750;17.004;2024-02-23T09:11:51;5.00;99.90
34985;DHT22;21190;58.750;17.004;2024-02-23T09:14:19;5.10;99.90
34985;DHT22;21190;58.750;17.004;2024-02-23T09:16:46;5.10;99.90
34985;DHT22;21190;58.750;17.004;2024-02-23T09:19:14;5.10;99.90
34985;DHT22;21190;58.750;17.004;2024-02-23T09:21:41;5.10;99.90
34985;DHT22;21190;58.750;17.004;2024-02-23T09:24:08;5.10;99.90
34985;DHT22;21190;58.750;17.004;2024-02-23T09:26:35;5.10;99.90
34985;DHT22;21190;58.750;17.004;2024-02-23T09:29:02;5.10;99.90
34985;DHT22;21190;58.750;17.004;2024-02-23T09:31:30;5.20;99.90
34985;DHT22;21190;58.750;17.004;2024-02-23T09:33:58;5.20;99.90
34985;DHT22;21190;58.750;17.004;2024-02-23T09:36:26;5.20;99.90
34985;DHT22;21190;58.750;17.004;2024-02-23T09:38:53;5.20;99.90
34985;DHT22;21190;58.750;17.004;2024-02-23T09:41:21;5.20;99.90
34985;DHT22;21190;58.750;17.004;2024-02-23T09:43:49;5.20;99.90
34985;DHT22;21190;58.750;17.004;2024-02-23T09:46:18;5.30;99.90
34985;DHT22;21190;58.750;17.004;2024-02-23T09:48:45;5.40;99.90
34985;DHT22;21190;58.750;17.004;2024-02-23T09:51:13;5.40;99.90
34985;DHT22;21190;58.750;17.004;2024-02-23T09:53:42;5.50;99.90
34985;DHT22;21190;58.750;17.004;2024-02-23T09:56:10;5.50;99.90
34985;DHT22;21190;58.750;17.004;2024-02-23T09:58:39;5.60;99.90
34985;DHT22;21190;58.750;17.004;2024-02-23T10:01:08;5.70;99.90
34985;DHT22;21190;58.750;17.004;2024-02-23T10:03:39;5.70;99.90
34985;DHT22;21190;58.750;17.004;2024-02-23T10:06:06;5.80;99.90
34985;DHT22;21190;58.750;17.004;2024-02-23T10:08:33;5.80;99.90
34985;DHT22;21190;58.750;17.004;2024-02-23T10:11:01;5.90;99.90
34985;DHT22;21190;58.750;17.004;2024-02-23T10:13:29;6.00;99.90
34985;DHT22;21190;58.750;17.004;2024-02-23T10:15:56;6.10;99.90
34985;DHT22;21190;58.750;17.004;2024-02-23T10:18:40;6.20;99.90
34985;DHT22;21190;58.750;17.004;2024-02-23T10:21:08;6.40;99.90
34985;DHT22;21190;58.750;17.004;2024-02-23T10:23:35;6.50;99.90
34985;DHT22;21190;58.750;17.004;2024-02-23T10:26:07;6.60;99.90
34985;DHT22;21190;58.750;17.004;2024-02-23T10:28:37;6.70;99.90
34985;DHT22;21190;58.750;17.004;2024-02-23T10:31:06;6.70;99.90
34985;DHT22;21190;58.750;17.004;2024-02-23T10:33:38;6.80;99.90
34985;DHT22;21190;58.750;17.004;2024-02-23T10:36:07;6.80;99.90
34985;DHT22;21190;58.750;17.004;2024-02-23T10:38:38;6.80;99.90
34985;DHT22;21190;58.750;17.004;2024-02-23T10:41:09;6.80;99.90
34985;DHT22;21190;58.750;17.004;2024-02-23T10:43:48;6.80;99.90
34985;DHT22;21190;58.750;17.004;2024-02-23T10:46:16;6.90;99.90
34985;DHT22;21190;58.750;17.004;2024-02-23T10:48:43;6.90;99.90
34985;DHT22;21190;58.750;17.004;2024-02-23T10:51:14;6.90;99.90
34985;DHT22;21190;58.750;17.004;2024-02-23T10:53:46;6.90;99.90
34985;DHT22;21190;58.750;17.004;2024-02-23T10:56:15;6.90;99.90
34985;DHT22;21190;58.750;17.004;2024-02-23T10:58:43;6.90;99.90
34985;DHT22;21190;58.750;17.004;2024-02-23T11:01:10;7.00;99.90
34985;DHT22;21190;58.750;17.004;2024-02-23T11:03:40;6.90;99.90
34985;DHT22;21190;58.750;17.004;2024-02-23T11:06:08;6.90;99.90
34985;DHT22;21190;58.750;17.004;2024-02-23T11:08:36;6.90;99.90
34985;DHT22;21190;58.750;17.004;2024-02-23T11:11:10;7.00;99.90
34985;DHT22;21190;58.750;17.004;2024-02-23T11:13:38;6.90;99.90
34985;DHT22;21190;58.750;17.004;2024-02-23T11:16:07;7.00;99.90
34985;DHT22;21190;58.750;17.004;2024-02-23T11:18:39;7.00;99.90
34985;DHT22;21190;58.750;17.004;2024-02-23T11:21:10;6.90;99.90
34985;DHT22;21190;58.750;17.004;2024-02-23T11:24:04;7.00;99.90
34985;DHT22;21190;58.750;17.004;2024-02-23T11:26:31;7.00;99.90
34985;DHT22;21190;58.750;17.004;2024-02-23T11:29:10;7.00;99.90
34985;DHT22;21190;58.750;17.004;2024-02-23T11:31:44;7.00;99.90
34985;DHT22;21190;58.750;17.004;2024-02-23T11:34:12;7.10;99.90
34985;DHT22;21190;58.750;17.004;2024-02-23T11:36:39;7.10;99.90
34985;DHT22;21190;58.750;17.004;2024-02-23T11:39:06;7.00;99.90
34985;DHT22;21190;58.750;17.004;2024-02-23T11:41:37;7.10;99.90
34985;DHT22;21190;58.750;17.004;2024-02-23T11:44:05;7.10;99.90
34985;DHT22;21190;58.750;17.004;2024-02-23T11:46:34;7.10;99.90
34985;DHT22;21190;58.750;17.004;2024-02-23T11:49:01;7.10;99.90
34985;DHT22;21190;58.750;17.004;2024-02-23T11:51:29;7.10;99.90
34985;DHT22;21190;58.750;17.004;2024-02-23T11:53:57;7.10;99.90
34985;DHT22;21190;58.750;17.004;2024-02-23T11:56:25;7.10;99.90
34985;DHT22;21190;58.750;17.004;2024-02-23T11:58:56;7.20;99.90
34985;DHT22;21190;58.750;17.004;2024-02-23T12:01:23;7.20;99.90
34985;DHT22;21190;58.750;17.004;2024-02-23T12:03:50;7.20;99.90
34985;DHT22;21190;58.750;17.004;2024-02-23T12:06:17;7.20;99.90
34985;DHT22;21190;58.750;17.004;2024-02-23T12:08:44;7.20;99.90
34985;DHT22;21190;58.750;17.004;2024-02-23T12:11:14;7.20;99.90
34985;DHT22;21190;58.750;17.004;2024-02-23T12:13:41;7.20;99.90
34985;DHT22;21190;58.750;17.004;2024-02-23T12:16:09;7.20;99.90
34985;DHT22;21190;58.750;17.004;2024-02-23T12:18:36;7.30;99.90
34985;DHT22;21190;58.750;17.004;2024-02-23T12:21:05;7.40;99.90
34985;DHT22;21190;58.750;17.004;2024-02-23T12:23:43;7.40;99.90
34985;DHT22;21190;58.750;17.004;2024-02-23T12:26:16;7.40;99.90
34985;DHT22;21190;58.750;17.004;2024-02-23T12:28:43;7.40;99.90
34985;DHT22;21190;58.750;17.004;2024-02-23T12:31:11;7.40;99.90
34985;DHT22;21190;58.750;17.004;2024-02-23T12:33:40;7.40;99.90
34985;DHT22;21190;58.750;17.004;2024-02-23T12:36:08;7.40;99.90
34985;DHT22;21190;58.750;17.004;2024-02-23T12:38:35;7.40;99.90
34985;DHT22;21190;58.750;17.004;2024-02-23T12:41:04;7.40;99.90
34985;DHT22;21190;58.750;17.004;2024-02-23T12:43:32;7.40;99.90
34985;DHT22;21190;58.750;17.004;2024-02-23T12:45:59;7.40;99.90
34985;DHT22;21190;58.750;17.004;2024-02-23T12:48:28;7.50;99.90
34985;DHT22;21190;58.750;17.004;2024-02-23T12:50:55;7.50;99.90
34985;DHT22;21190;58.750;17.004;2024-02-23T12:53:33;7.40;99.90
34985;DHT22;21190;58.750;17.004;2024-02-23T12:56:05;7.40;99.90
34985;DHT22;21190;58.750;17.004;2024-02-23T12:58:38;7.40;99.90
34985;DHT22;21190;58.750;17.004;2024-02-23T13:01:06;7.50;99.90
34985;DHT22;21190;58.750;17.004;2024-02-23T13:03:35;7.50;99.90
34985;DHT22;21190;58.750;17.004;2024-02-23T13:06:03;7.40;99.90
34985;DHT22;21190;58.750;17.004;2024-02-23T13:08:32;7.50;99.90
34985;DHT22;21190;58.750;17.004;2024-02-23T13:10:59;7.50;99.90
34985;DHT22;21190;58.750;17.004;2024-02-23T13:13:26;7.40;99.90
34985;DHT22;21190;58.750;17.004;2024-02-23T13:15:55;7.40;99.90
34985;DHT22;21190;58.750;17.004;2024-02-23T13:18:23;7.40;99.90
34985;DHT22;21190;58.750;17.004;2024-02-23T13:20:51;7.50;99.90
34985;DHT22;21190;58.750;17.004;2024-02-23T13:23:18;7.40;99.90
34985;DHT22;21190;58.750;17.004;2024-02-23T13:25:45;7.40;99.90
34985;DHT22;21190;58.750;17.004;2024-02-23T13:28:13;7.50;99.90
34985;DHT22;21190;58.750;17.004;2024-02-23T13:30:40;7.40;99.90
34985;DHT22;21190;58.750;17.004;2024-02-23T13:33:08;7.40;99.90
34985;DHT22;21190;58.750;17.004;2024-02-23T13:35:38;7.40;99.90
34985;DHT22;21190;58.750;17.004;2024-02-23T13:38:07;7.40;99.90
34985;DHT22;21190;58.750;17.004;2024-02-23T13:40:34;7.40;99.90
34985;DHT22;21190;58.750;17.004;2024-02-23T13:43:01;7.40;99.90
34985;DHT22;21190;58.750;17.004;2024-02-23T13:45:28;7.40;99.90
34985;DHT22;21190;58.750;17.004;2024-02-23T13:48:00;7.40;99.90
34985;DHT22;21190;58.750;17.004;2024-02-23T13:50:28;7.40;99.90
34985;DHT22;21190;58.750;17.004;2024-02-23T13:52:55;7.40;99.90
34985;DHT22;21190;58.750;17.004;2024-02-23T13:55:23;7.30;99.90
34985;DHT22;21190;58.750;17.004;2024-02-23T13:57:51;7.30;99.90
34985;DHT22;21190;58.750;17.004;2024-02-23T14:00:19;7.30;99.90
34985;DHT22;21190;58.750;17.004;2024-02-23T14:02:47;7.30;99.90
34985;DHT22;21190;58.750;17.004;2024-02-23T14:05:15;7.40;99.90
34985;DHT22;21190;58.750;17.004;2024-02-23T14:07:45;7.40;99.90
34985;DHT22;21190;58.750;17.004;2024-02-23T14:10:13;7.40;99.90
34985;DHT22;21190;58.750;17.004;2024-02-23T14:12:41;7.30;99.90
34985;DHT22;21190;58.750;17.004;2024-02-23T14:15:09;7.30;99.90
34985;DHT22;21190;58.750;17.004;2024-02-23T14:17:37;7.30;99.90
34985;DHT22;21190;58.750;17.004;2024-02-23T14:20:05;7.30;99.90
34985;DHT22;21190;58.750;17.004;2024-02-23T14:22:33;7.30;99.90
34985;DHT22;21190;58.750;17.004;2024-02-23T14:25:01;7.20;99.90
34985;DHT22;21190;58.750;17.004;2024-02-23T14:27:28;7.10;99.90
34985;DHT22;21190;58.750;17.004;2024-02-23T14:29:58;7.00;99.90
34985;DHT22;21190;58.750;17.004;2024-02-23T14:32:25;6.80;99.90
34985;DHT22;21190;58.750;17.004;2024-02-23T14:34:52;6.80;99.90
34985;DHT22;21190;58.750;17.004;2024-02-23T14:37:20;6.80;99.90
34985;DHT22;21190;58.750;17.004;2024-02-23T14:39:47;6.80;99.90
34985;DHT22;21190;58.750;17.004;2024-02-23T14:42:16;6.80;99.90
34985;DHT22;21190;58.750;17.004;2024-02-23T14:44:43;6.70;99.90
34985;DHT22;21190;58.750;17.004;2024-02-23T14:47:12;6.70;99.90
34985;DHT22;21190;58.750;17.004;2024-02-23T14:49:40;6.70;99.90
34985;DHT22;21190;58.750;17.004;2024-02-23T14:52:07;6.70;99.90
34985;DHT22;21190;58.750;17.004;2024-02-23T14:54:34;6.70;99.90
34985;DHT22;21190;58.750;17.004;2024-02-23T14:57:02;6.70;99.90
34985;DHT22;21190;58.750;17.004;2024-02-23T14:59:30;6.70;99.90
34985;DHT22;21190;58.750;17.004;2024-02-23T15:01:57;6.70;99.90
34985;DHT22;21190;58.750;17.004;2024-02-23T15:04:24;6.70;99.90
34985;DHT22;21190;58.750;17.004;2024-02-23T15:06:52;6.70;99.90
34985;DHT22;21190;58.750;17.004;2024-02-23T15:09:19;6.60;99.90
34985;DHT22;21190;58.750;17.004;2024-02-23T15:11:46;6.60;99.90
34985;DHT22;21190;58.750;17.004;2024-02-23T15:14:13;6.60;99.90
34985;DHT22;21190;58.750;17.004;2024-02-23T15:16:43;6.50;99.90
34985;DHT22;21190;58.750;17.004;2024-02-23T15:19:10;6.50;99.90
34985;DHT22;21190;58.750;17.004;2024-02-23T15:21:38;6.50;99.90
34985;DHT22;21190;58.750;17.004;2024-02-23T15:24:07;6.50;99.90
34985;DHT22;21190;58.750;17.004;2024-02-23T15:26:34;6.50;99.90
34985;DHT22;21190;58.750;17.004;2024-02-23T15:29:02;6.50;99.90
34985;DHT22;21190;58.750;17.004;2024-02-23T15:31:32;6.50;99.90
34985;DHT22;21190;58.750;17.004;2024-02-23T15:33:59;6.50;99.90
34985;DHT22;21190;58.750;17.004;2024-02-23T15:36:27;6.50;99.90